sensor_id;sensor_type;location;lat;lon;timestamp;P1;durP1;ratioP1;P2;durP2;ratioP2
51122;SDS011;37162;41.724;13.346;2023-07-16T00:01:42;2.28;;;1.80;;
51122;SDS011;37162;41.724;13.346;2023-07-16T00:04:07;1.65;;;1.55;;
51122;SDS011;37162;41.724;13.346;2023-07-16T00:06:33;2.95;;;1.60;;
51122;SDS011;37162;41.724;13.346;2023-07-16T00:08:59;1.67;;;1.58;;
51122;SDS011;37162;41.724;13.346;2023-07-16T00:11:24;1.80;;;1.70;;
51122;SDS011;37162;41.724;13.346;2023-07-16T00:13:50;3.45;;;1.60;;
51122;SDS011;37162;41.724;13.346;2023-07-16T00:16:15;1.65;;;1.55;;
51122;SDS011;37162;41.724;13.346;2023-07-16T00:18:41;1.83;;;1.52;;
51122;SDS011;37162;41.724;13.346;2023-07-16T00:21:09;2.15;;;1.63;;
51122;SDS011;37162;41.724;13.346;2023-07-16T00:23:34;3.72;;;1.65;;
51122;SDS011;37162;41.724;13.346;2023-07-16T00:25:59;3.25;;;1.70;;
51122;SDS011;37162;41.724;13.346;2023-07-16T00:28:25;4.63;;;1.70;;
51122;SDS011;37162;41.724;13.346;2023-07-16T00:30:50;1.52;;;1.40;;
51122;SDS011;37162;41.724;13.346;2023-07-16T00:33:15;1.85;;;1.75;;
51122;SDS011;37162;41.724;13.346;2023-07-16T00:35:50;2.22;;;1.73;;
51122;SDS011;37162;41.724;13.346;2023-07-16T00:38:19;2.40;;;1.90;;
51122;SDS011;37162;41.724;13.346;2023-07-16T00:40:45;4.35;;;1.60;;
51122;SDS011;37162;41.724;13.346;2023-07-16T00:43:11;2.10;;;1.60;;
51122;SDS011;37162;41.724;13.346;2023-07-16T00:45:37;3.75;;;1.40;;
51122;SDS011;37162;41.724;13.346;2023-07-16T00:48:04;1.67;;;1.40;;
51122;SDS011;37162;41.724;13.346;2023-07-16T00:50:31;1.60;;;1.50;;
51122;SDS011;37162;41.724;13.346;2023-07-16T00:53:02;3.63;;;1.70;;
51122;SDS011;37162;41.724;13.346;2023-07-16T00:55:31;2.15;;;1.58;;
51122;SDS011;37162;41.724;13.346;2023-07-16T00:58:04;1.83;;;1.73;;
51122;SDS011;37162;41.724;13.346;2023-07-16T01:00:31;2.80;;;1.75;;
51122;SDS011;37162;41.724;13.346;2023-07-16T01:03:04;1.67;;;1.58;;
51122;SDS011;37162;41.724;13.346;2023-07-16T01:08:26;1.80;;;1.70;;
51122;SDS011;37162;41.724;13.346;2023-07-16T01:10:58;1.85;;;1.40;;
51122;SDS011;37162;41.724;13.346;2023-07-16T01:13:25;1.90;;;1.80;;
51122;SDS011;37162;41.724;13.346;2023-07-16T01:15:51;4.70;;;1.55;;
51122;SDS011;37162;41.724;13.346;2023-07-16T01:18:17;4.10;;;1.63;;
51122;SDS011;37162;41.724;13.346;2023-07-16T01:20:42;2.65;;;1.73;;
51122;SDS011;37162;41.724;13.346;2023-07-16T01:28:51;4.70;;;1.80;;
51122;SDS011;37162;41.724;13.346;2023-07-16T01:31:29;1.48;;;1.38;;
51122;SDS011;37162;41.724;13.346;2023-07-16T01:33:56;4.18;;;1.63;;
51122;SDS011;37162;41.724;13.346;2023-07-16T01:36:22;7.00;;;1.90;;
51122;SDS011;37162;41.724;13.346;2023-07-16T01:38:49;1.60;;;1.45;;
51122;SDS011;37162;41.724;13.346;2023-07-16T01:41:15;1.67;;;1.58;;
51122;SDS011;37162;41.724;13.346;2023-07-16T01:43:40;2.15;;;1.63;;
51122;SDS011;37162;41.724;13.346;2023-07-16T01:46:05;1.88;;;1.70;;
51122;SDS011;37162;41.724;13.346;2023-07-16T01:48:35;2.53;;;1.55;;
51122;SDS011;37162;41.724;13.346;2023-07-16T01:51:02;1.52;;;1.42;;
51122;SDS011;37162;41.724;13.346;2023-07-16T01:53:28;1.35;;;1.25;;
51122;SDS011;37162;41.724;13.346;2023-07-16T01:55:54;1.63;;;1.52;;
51122;SDS011;37162;41.724;13.346;2023-07-16T01:58:20;1.55;;;1.45;;
51122;SDS011;37162;41.724;13.346;2023-07-16T02:00:45;2.30;;;1.33;;
51122;SDS011;37162;41.724;13.346;2023-07-16T02:03:11;1.98;;;1.50;;
51122;SDS011;37162;41.724;13.346;2023-07-16T02:05:36;3.22;;;1.42;;
51122;SDS011;37162;41.724;13.346;2023-07-16T02:08:02;2.72;;;1.40;;
51122;SDS011;37162;41.724;13.346;2023-07-16T02:10:28;1.60;;;1.50;;
51122;SDS011;37162;41.724;13.346;2023-07-16T02:12:53;1.33;;;1.23;;
51122;SDS011;37162;41.724;13.346;2023-07-16T02:15:18;2.03;;;1.83;;
51122;SDS011;37162;41.724;13.346;2023-07-16T02:17:44;3.05;;;2.13;;
51122;SDS011;37162;41.724;13.346;2023-07-16T02:20:10;2.00;;;1.80;;
51122;SDS011;37162;41.724;13.346;2023-07-16T02:22:36;2.78;;;1.48;;
51122;SDS011;37162;41.724;13.346;2023-07-16T02:25:02;1.88;;;1.42;;
51122;SDS011;37162;41.724;13.346;2023-07-16T02:27:28;1.45;;;1.27;;
51122;SDS011;37162;41.724;13.346;2023-07-16T02:29:54;3.88;;;1.55;;
51122;SDS011;37162;41.724;13.346;2023-07-16T02:32:19;3.75;;;1.58;;
51122;SDS011;37162;41.724;13.346;2023-07-16T02:34:45;2.22;;;1.60;;
51122;SDS011;37162;41.724;13.346;2023-07-16T02:37:10;3.83;;;1.70;;
51122;SDS011;37162;41.724;13.346;2023-07-16T02:39:36;1.30;;;1.20;;
51122;SDS011;37162;41.724;13.346;2023-07-16T02:42:01;1.98;;;1.77;;
51122;SDS011;37162;41.724;13.346;2023-07-16T02:44:27;1.83;;;1.50;;
51122;SDS011;37162;41.724;13.346;2023-07-16T02:46:52;1.65;;;1.42;;
51122;SDS011;37162;41.724;13.346;2023-07-16T02:49:18;3.53;;;1.67;;
51122;SDS011;37162;41.724;13.346;2023-07-16T02:51:43;1.95;;;1.63;;
51122;SDS011;37162;41.724;13.346;2023-07-16T02:54:08;1.77;;;1.35;;
51122;SDS011;37162;41.724;13.346;2023-07-16T02:56:34;2.92;;;1.50;;
51122;SDS011;37162;41.724;13.346;2023-07-16T02:58:59;3.05;;;1.60;;
51122;SDS011;37162;41.724;13.346;2023-07-16T03:01:25;1.77;;;1.40;;
51122;SDS011;37162;41.724;13.346;2023-07-16T03:03:50;2.08;;;1.50;;
51122;SDS011;37162;41.724;13.346;2023-07-16T03:06:16;5.95;;;1.70;;
51122;SDS011;37162;41.724;13.346;2023-07-16T03:08:41;1.95;;;1.48;;
51122;SDS011;37162;41.724;13.346;2023-07-16T03:11:07;2.53;;;1.52;;
51122;SDS011;37162;41.724;13.346;2023-07-16T03:13:32;2.30;;;1.80;;
51122;SDS011;37162;41.724;13.346;2023-07-16T03:15:58;1.80;;;1.50;;
51122;SDS011;37162;41.724;13.346;2023-07-16T03:18:27;1.70;;;1.60;;
51122;SDS011;37162;41.724;13.346;2023-07-16T03:20:53;2.03;;;1.50;;
51122;SDS011;37162;41.724;13.346;2023-07-16T03:23:18;1.60;;;1.50;;
51122;SDS011;37162;41.724;13.346;2023-07-16T03:25:44;3.72;;;1.50;;
51122;SDS011;37162;41.724;13.346;2023-07-16T03:28:10;2.03;;;1.50;;
51122;SDS011;37162;41.724;13.346;2023-07-16T03:30:35;1.75;;;1.58;;
51122;SDS011;37162;41.724;13.346;2023-07-16T03:33:02;3.45;;;2.10;;
51122;SDS011;37162;41.724;13.346;2023-07-16T03:35:28;2.72;;;1.40;;
51122;SDS011;37162;41.724;13.346;2023-07-16T03:37:53;1.73;;;1.52;;
51122;SDS011;37162;41.724;13.346;2023-07-16T03:40:23;1.42;;;1.27;;
51122;SDS011;37162;41.724;13.346;2023-07-16T03:42:50;1.40;;;1.08;;
51122;SDS011;37162;41.724;13.346;2023-07-16T03:45:15;2.33;;;1.42;;
51122;SDS011;37162;41.724;13.346;2023-07-16T03:47:41;3.58;;;1.35;;
51122;SDS011;37162;41.724;13.346;2023-07-16T03:50:07;1.80;;;1.25;;
51122;SDS011;37162;41.724;13.346;2023-07-16T03:52:33;1.77;;;1.48;;
51122;SDS011;37162;41.724;13.346;2023-07-16T03:54:58;1.20;;;1.10;;
51122;SDS011;37162;41.724;13.346;2023-07-16T03:57:24;2.05;;;1.40;;
51122;SDS011;37162;41.724;13.346;2023-07-16T03:59:49;1.30;;;1.20;;
51122;SDS011;37162;41.724;13.346;2023-07-16T04:02:15;3.42;;;1.10;;
51122;SDS011;37162;41.724;13.346;2023-07-16T04:04:40;1.52;;;1.40;;
51122;SDS011;37162;41.724;13.346;2023-07-16T04:07:05;2.97;;;1.48;;
51122;SDS011;37162;41.724;13.346;2023-07-16T04:09:31;7.88;;;1.73;;
51122;SDS011;37162;41.724;13.346;2023-07-16T04:11:56;2.20;;;1.85;;
51122;SDS011;37162;41.724;13.346;2023-07-16T04:14:22;1.90;;;1.42;;
51122;SDS011;37162;41.724;13.346;2023-07-16T04:16:47;2.65;;;1.17;;
51122;SDS011;37162;41.724;13.346;2023-07-16T04:19:13;5.68;;;1.40;;
51122;SDS011;37162;41.724;13.346;2023-07-16T04:21:38;1.88;;;1.20;;
51122;SDS011;37162;41.724;13.346;2023-07-16T04:24:04;1.92;;;1.70;;
51122;SDS011;37162;41.724;13.346;2023-07-16T04:26:31;1.63;;;1.35;;
51122;SDS011;37162;41.724;13.346;2023-07-16T04:28:56;3.78;;;1.63;;
51122;SDS011;37162;41.724;13.346;2023-07-16T04:31:22;3.22;;;1.30;;
51122;SDS011;37162;41.724;13.346;2023-07-16T04:33:48;1.83;;;1.33;;
51122;SDS011;37162;41.724;13.346;2023-07-16T04:36:13;4.40;;;1.50;;
51122;SDS011;37162;41.724;13.346;2023-07-16T04:38:39;1.50;;;1.23;;
51122;SDS011;37162;41.724;13.346;2023-07-16T04:41:04;1.63;;;1.40;;
51122;SDS011;37162;41.724;13.346;2023-07-16T04:43:29;4.10;;;1.92;;
51122;SDS011;37162;41.724;13.346;2023-07-16T04:45:55;1.20;;;1.10;;
51122;SDS011;37162;41.724;13.346;2023-07-16T04:48:20;1.30;;;1.10;;
51122;SDS011;37162;41.724;13.346;2023-07-16T04:50:46;1.38;;;1.17;;
51122;SDS011;37162;41.724;13.346;2023-07-16T04:53:11;1.80;;;1.10;;
51122;SDS011;37162;41.724;13.346;2023-07-16T04:55:37;1.30;;;1.20;;
51122;SDS011;37162;41.724;13.346;2023-07-16T04:58:04;1.73;;;1.27;;
51122;SDS011;37162;41.724;13.346;2023-07-16T05:00:31;4.45;;;1.25;;
51122;SDS011;37162;41.724;13.346;2023-07-16T05:02:57;2.53;;;1.17;;
51122;SDS011;37162;41.724;13.346;2023-07-16T05:05:22;1.10;;;1.00;;
51122;SDS011;37162;41.724;13.346;2023-07-16T05:07:48;1.67;;;1.38;;
51122;SDS011;37162;41.724;13.346;2023-07-16T05:10:13;1.48;;;1.33;;
51122;SDS011;37162;41.724;13.346;2023-07-16T05:12:39;1.92;;;1.38;;
51122;SDS011;37162;41.724;13.346;2023-07-16T05:15:04;1.30;;;1.20;;
51122;SDS011;37162;41.724;13.346;2023-07-16T05:17:30;1.60;;;1.40;;
51122;SDS011;37162;41.724;13.346;2023-07-16T05:19:56;2.75;;;1.52;;
51122;SDS011;37162;41.724;13.346;2023-07-16T05:22:21;1.85;;;1.50;;
51122;SDS011;37162;41.724;13.346;2023-07-16T05:24:46;1.30;;;1.20;;
51122;SDS011;37162;41.724;13.346;2023-07-16T05:27:12;3.85;;;1.60;;
51122;SDS011;37162;41.724;13.346;2023-07-16T05:29:37;2.15;;;1.15;;
51122;SDS011;37162;41.724;13.346;2023-07-16T05:32:03;2.05;;;1.48;;
51122;SDS011;37162;41.724;13.346;2023-07-16T05:34:29;1.60;;;1.20;;
51122;SDS011;37162;41.724;13.346;2023-07-16T05:36:54;1.20;;;1.10;;
51122;SDS011;37162;41.724;13.346;2023-07-16T05:39:21;1.40;;;1.30;;
51122;SDS011;37162;41.724;13.346;2023-07-16T05:41:47;1.60;;;1.45;;
51122;SDS011;37162;41.724;13.346;2023-07-16T05:44:12;1.92;;;1.35;;
51122;SDS011;37162;41.724;13.346;2023-07-16T05:46:38;1.50;;;1.38;;
51122;SDS011;37162;41.724;13.346;2023-07-16T05:49:03;5.53;;;1.70;;
51122;SDS011;37162;41.724;13.346;2023-07-16T05:51:29;1.30;;;1.20;;
51122;SDS011;37162;41.724;13.346;2023-07-16T05:53:54;1.33;;;1.23;;
51122;SDS011;37162;41.724;13.346;2023-07-16T05:56:20;1.40;;;1.05;;
51122;SDS011;37162;41.724;13.346;2023-07-16T05:58:45;1.70;;;1.48;;
51122;SDS011;37162;41.724;13.346;2023-07-16T06:01:10;1.38;;;1.25;;
51122;SDS011;37162;41.724;13.346;2023-07-16T06:03:36;1.60;;;1.17;;
51122;SDS011;37162;41.724;13.346;2023-07-16T06:06:01;1.67;;;1.50;;
51122;SDS011;37162;41.724;13.346;2023-07-16T06:08:27;2.13;;;1.20;;
51122;SDS011;37162;41.724;13.346;2023-07-16T06:10:53;2.47;;;1.27;;
51122;SDS011;37162;41.724;13.346;2023-07-16T06:13:18;11.10;;;1.60;;
51122;SDS011;37162;41.724;13.346;2023-07-16T06:15:44;2.85;;;1.23;;
51122;SDS011;37162;41.724;13.346;2023-07-16T06:18:10;5.43;;;1.30;;
51122;SDS011;37162;41.724;13.346;2023-07-16T06:20:36;2.95;;;1.77;;
51122;SDS011;37162;41.724;13.346;2023-07-16T06:23:01;4.35;;;1.60;;
51122;SDS011;37162;41.724;13.346;2023-07-16T06:25:27;8.65;;;2.25;;
51122;SDS011;37162;41.724;13.346;2023-07-16T06:27:52;6.82;;;1.20;;
51122;SDS011;37162;41.724;13.346;2023-07-16T06:30:17;3.30;;;1.35;;
51122;SDS011;37162;41.724;13.346;2023-07-16T06:32:43;2.47;;;1.60;;
51122;SDS011;37162;41.724;13.346;2023-07-16T06:35:08;8.02;;;1.67;;
51122;SDS011;37162;41.724;13.346;2023-07-16T06:37:34;1.92;;;1.50;;
51122;SDS011;37162;41.724;13.346;2023-07-16T06:40:00;4.25;;;1.90;;
51122;SDS011;37162;41.724;13.346;2023-07-16T06:42:25;2.22;;;1.40;;
51122;SDS011;37162;41.724;13.346;2023-07-16T06:44:50;2.38;;;1.42;;
51122;SDS011;37162;41.724;13.346;2023-07-16T06:47:16;6.07;;;1.42;;
51122;SDS011;37162;41.724;13.346;2023-07-16T06:49:41;2.83;;;1.15;;
51122;SDS011;37162;41.724;13.346;2023-07-16T06:52:07;2.85;;;2.10;;
51122;SDS011;37162;41.724;13.346;2023-07-16T06:54:33;3.42;;;1.27;;
51122;SDS011;37162;41.724;13.346;2023-07-16T06:56:59;2.10;;;1.75;;
51122;SDS011;37162;41.724;13.346;2023-07-16T06:59:25;3.20;;;1.42;;
51122;SDS011;37162;41.724;13.346;2023-07-16T07:01:50;2.95;;;1.67;;
51122;SDS011;37162;41.724;13.346;2023-07-16T07:04:16;2.25;;;1.50;;
51122;SDS011;37162;41.724;13.346;2023-07-16T07:06:41;2.63;;;1.10;;
51122;SDS011;37162;41.724;13.346;2023-07-16T07:09:07;1.98;;;1.48;;
51122;SDS011;37162;41.724;13.346;2023-07-16T07:11:32;1.88;;;1.42;;
51122;SDS011;37162;41.724;13.346;2023-07-16T07:13:58;2.58;;;1.42;;
51122;SDS011;37162;41.724;13.346;2023-07-16T07:16:23;1.95;;;1.75;;
51122;SDS011;37162;41.724;13.346;2023-07-16T07:18:49;2.38;;;1.48;;
51122;SDS011;37162;41.724;13.346;2023-07-16T07:21:14;1.70;;;1.48;;
51122;SDS011;37162;41.724;13.346;2023-07-16T07:23:40;5.03;;;1.90;;
51122;SDS011;37162;41.724;13.346;2023-07-16T07:26:05;4.40;;;1.58;;
51122;SDS011;37162;41.724;13.346;2023-07-16T07:28:31;2.45;;;1.70;;
51122;SDS011;37162;41.724;13.346;2023-07-16T07:30:56;5.18;;;1.52;;
51122;SDS011;37162;41.724;13.346;2023-07-16T07:33:22;3.17;;;1.65;;
51122;SDS011;37162;41.724;13.346;2023-07-16T07:35:47;2.22;;;1.50;;
51122;SDS011;37162;41.724;13.346;2023-07-16T07:38:13;1.98;;;1.50;;
51122;SDS011;37162;41.724;13.346;2023-07-16T07:40:44;1.83;;;1.60;;
51122;SDS011;37162;41.724;13.346;2023-07-16T07:43:10;3.97;;;1.60;;
51122;SDS011;37162;41.724;13.346;2023-07-16T07:45:35;3.85;;;1.50;;
51122;SDS011;37162;41.724;13.346;2023-07-16T07:48:00;4.22;;;1.70;;
51122;SDS011;37162;41.724;13.346;2023-07-16T07:50:26;5.35;;;1.50;;
51122;SDS011;37162;41.724;13.346;2023-07-16T07:52:51;1.98;;;1.48;;
51122;SDS011;37162;41.724;13.346;2023-07-16T07:55:17;1.92;;;1.42;;
51122;SDS011;37162;41.724;13.346;2023-07-16T07:57:42;2.35;;;1.77;;
51122;SDS011;37162;41.724;13.346;2023-07-16T08:00:08;3.28;;;1.65;;
51122;SDS011;37162;41.724;13.346;2023-07-16T08:02:36;1.40;;;1.30;;
51122;SDS011;37162;41.724;13.346;2023-07-16T08:05:02;4.93;;;1.65;;
51122;SDS011;37162;41.724;13.346;2023-07-16T08:07:27;4.47;;;1.75;;
51122;SDS011;37162;41.724;13.346;2023-07-16T08:09:53;4.00;;;1.70;;
51122;SDS011;37162;41.724;13.346;2023-07-16T08:12:19;2.55;;;1.50;;
51122;SDS011;37162;41.724;13.346;2023-07-16T08:14:44;3.20;;;2.67;;
51122;SDS011;37162;41.724;13.346;2023-07-16T08:17:09;2.10;;;1.90;;
51122;SDS011;37162;41.724;13.346;2023-07-16T08:19:35;3.00;;;1.88;;
51122;SDS011;37162;41.724;13.346;2023-07-16T08:22:00;3.05;;;2.40;;
51122;SDS011;37162;41.724;13.346;2023-07-16T08:24:26;2.65;;;1.90;;
51122;SDS011;37162;41.724;13.346;2023-07-16T08:26:51;3.47;;;1.65;;
51122;SDS011;37162;41.724;13.346;2023-07-16T08:29:17;4.63;;;2.00;;
51122;SDS011;37162;41.724;13.346;2023-07-16T08:31:42;6.07;;;2.63;;
51122;SDS011;37162;41.724;13.346;2023-07-16T08:34:08;2.85;;;2.00;;
51122;SDS011;37162;41.724;13.346;2023-07-16T08:36:33;2.78;;;1.88;;
51122;SDS011;37162;41.724;13.346;2023-07-16T08:38:59;5.32;;;2.25;;
51122;SDS011;37162;41.724;13.346;2023-07-16T08:41:24;2.80;;;1.98;;
51122;SDS011;37162;41.724;13.346;2023-07-16T08:43:51;2.67;;;2.03;;
51122;SDS011;37162;41.724;13.346;2023-07-16T08:46:16;5.55;;;2.85;;
51122;SDS011;37162;41.724;13.346;2023-07-16T08:48:42;5.05;;;1.77;;
51122;SDS011;37162;41.724;13.346;2023-07-16T08:51:08;4.25;;;2.00;;
51122;SDS011;37162;41.724;13.346;2023-07-16T08:53:34;2.35;;;2.00;;
51122;SDS011;37162;41.724;13.346;2023-07-16T08:56:00;4.13;;;2.30;;
51122;SDS011;37162;41.724;13.346;2023-07-16T08:58:27;2.20;;;1.85;;
51122;SDS011;37162;41.724;13.346;2023-07-16T09:00:54;4.60;;;2.58;;
51122;SDS011;37162;41.724;13.346;2023-07-16T09:03:21;3.08;;;2.35;;
51122;SDS011;37162;41.724;13.346;2023-07-16T09:05:46;2.28;;;1.77;;
51122;SDS011;37162;41.724;13.346;2023-07-16T09:08:12;3.28;;;1.88;;
51122;SDS011;37162;41.724;13.346;2023-07-16T09:10:39;4.35;;;1.88;;
51122;SDS011;37162;41.724;13.346;2023-07-16T09:13:06;6.47;;;2.50;;
51122;SDS011;37162;41.724;13.346;2023-07-16T09:15:31;3.15;;;2.00;;
51122;SDS011;37162;41.724;13.346;2023-07-16T09:17:59;3.15;;;2.42;;
51122;SDS011;37162;41.724;13.346;2023-07-16T09:20:25;2.70;;;2.10;;
51122;SDS011;37162;41.724;13.346;2023-07-16T09:22:55;3.58;;;2.47;;
51122;SDS011;37162;41.724;13.346;2023-07-16T09:25:30;2.33;;;2.00;;
51122;SDS011;37162;41.724;13.346;2023-07-16T09:28:03;2.45;;;1.95;;
51122;SDS011;37162;41.724;13.346;2023-07-16T09:30:32;2.63;;;1.88;;
51122;SDS011;37162;41.724;13.346;2023-07-16T09:32:58;3.00;;;2.13;;
51122;SDS011;37162;41.724;13.346;2023-07-16T09:35:35;2.42;;;2.10;;
51122;SDS011;37162;41.724;13.346;2023-07-16T09:38:01;4.43;;;2.45;;
51122;SDS011;37162;41.724;13.346;2023-07-16T09:40:27;2.80;;;1.80;;
51122;SDS011;37162;41.724;13.346;2023-07-16T09:42:54;2.72;;;1.92;;
51122;SDS011;37162;41.724;13.346;2023-07-16T09:45:20;4.32;;;2.53;;
51122;SDS011;37162;41.724;13.346;2023-07-16T09:47:46;4.10;;;2.30;;
51122;SDS011;37162;41.724;13.346;2023-07-16T09:50:12;2.05;;;1.85;;
51122;SDS011;37162;41.724;13.346;2023-07-16T09:52:37;2.97;;;2.08;;
51122;SDS011;37162;41.724;13.346;2023-07-16T09:55:05;1.90;;;1.80;;
51122;SDS011;37162;41.724;13.346;2023-07-16T09:57:37;4.18;;;2.15;;
51122;SDS011;37162;41.724;13.346;2023-07-16T10:00:07;2.83;;;2.03;;
51122;SDS011;37162;41.724;13.346;2023-07-16T10:02:37;3.88;;;1.90;;
51122;SDS011;37162;41.724;13.346;2023-07-16T10:05:16;2.85;;;2.15;;
51122;SDS011;37162;41.724;13.346;2023-07-16T10:07:51;3.45;;;1.80;;
51122;SDS011;37162;41.724;13.346;2023-07-16T10:10:18;3.97;;;2.08;;
51122;SDS011;37162;41.724;13.346;2023-07-16T10:13:06;5.25;;;1.90;;
51122;SDS011;37162;41.724;13.346;2023-07-16T10:15:29;3.03;;;2.05;;
51122;SDS011;37162;41.724;13.346;2023-07-16T10:17:55;2.55;;;1.85;;
51122;SDS011;37162;41.724;13.346;2023-07-16T10:20:28;2.97;;;2.03;;
51122;SDS011;37162;41.724;13.346;2023-07-16T10:23:13;5.00;;;1.85;;
51122;SDS011;37162;41.724;13.346;2023-07-16T10:25:40;5.85;;;2.28;;
51122;SDS011;37162;41.724;13.346;2023-07-16T10:28:22;2.25;;;1.90;;
51122;SDS011;37162;41.724;13.346;2023-07-16T10:30:49;4.68;;;1.98;;
51122;SDS011;37162;41.724;13.346;2023-07-16T10:33:15;2.70;;;2.08;;
51122;SDS011;37162;41.724;13.346;2023-07-16T10:35:41;2.90;;;1.80;;
51122;SDS011;37162;41.724;13.346;2023-07-16T10:38:15;2.60;;;2.10;;
51122;SDS011;37162;41.724;13.346;2023-07-16T10:40:41;2.65;;;1.90;;
51122;SDS011;37162;41.724;13.346;2023-07-16T10:43:07;5.07;;;2.15;;
51122;SDS011;37162;41.724;13.346;2023-07-16T10:45:33;3.80;;;2.22;;
51122;SDS011;37162;41.724;13.346;2023-07-16T10:47:59;7.15;;;2.35;;
51122;SDS011;37162;41.724;13.346;2023-07-16T10:50:24;4.47;;;1.95;;
51122;SDS011;37162;41.724;13.346;2023-07-16T10:52:51;9.20;;;2.35;;
51122;SDS011;37162;41.724;13.346;2023-07-16T10:55:20;4.20;;;2.20;;
51122;SDS011;37162;41.724;13.346;2023-07-16T10:57:47;4.38;;;2.63;;
51122;SDS011;37162;41.724;13.346;2023-07-16T11:00:14;4.65;;;2.60;;
51122;SDS011;37162;41.724;13.346;2023-07-16T11:02:40;7.60;;;2.58;;
51122;SDS011;37162;41.724;13.346;2023-07-16T11:05:06;5.93;;;2.42;;
51122;SDS011;37162;41.724;13.346;2023-07-16T11:07:47;2.92;;;2.20;;
51122;SDS011;37162;41.724;13.346;2023-07-16T11:10:17;2.83;;;2.28;;
51122;SDS011;37162;41.724;13.346;2023-07-16T11:12:43;6.47;;;2.55;;
51122;SDS011;37162;41.724;13.346;2023-07-16T11:15:09;4.55;;;2.28;;
51122;SDS011;37162;41.724;13.346;2023-07-16T11:17:37;4.10;;;2.72;;
51122;SDS011;37162;41.724;13.346;2023-07-16T11:20:04;5.60;;;2.88;;
51122;SDS011;37162;41.724;13.346;2023-07-16T11:22:32;8.90;;;2.50;;
51122;SDS011;37162;41.724;13.346;2023-07-16T11:25:01;3.50;;;2.20;;
51122;SDS011;37162;41.724;13.346;2023-07-16T11:27:29;4.95;;;2.10;;
51122;SDS011;37162;41.724;13.346;2023-07-16T11:29:57;2.40;;;1.92;;
51122;SDS011;37162;41.724;13.346;2023-07-16T11:32:30;3.38;;;2.35;;
51122;SDS011;37162;41.724;13.346;2023-07-16T11:35:04;3.55;;;2.38;;
51122;SDS011;37162;41.724;13.346;2023-07-16T11:37:31;2.85;;;2.03;;
51122;SDS011;37162;41.724;13.346;2023-07-16T11:39:58;2.90;;;1.98;;
51122;SDS011;37162;41.724;13.346;2023-07-16T11:42:31;3.08;;;2.05;;
51122;SDS011;37162;41.724;13.346;2023-07-16T11:45:00;2.65;;;2.10;;
51122;SDS011;37162;41.724;13.346;2023-07-16T11:47:25;5.43;;;2.35;;
51122;SDS011;37162;41.724;13.346;2023-07-16T11:49:52;4.15;;;2.50;;
51122;SDS011;37162;41.724;13.346;2023-07-16T11:52:21;4.00;;;2.65;;
51122;SDS011;37162;41.724;13.346;2023-07-16T11:54:48;2.93;;;2.20;;
51122;SDS011;37162;41.724;13.346;2023-07-16T11:57:14;3.15;;;2.05;;
51122;SDS011;37162;41.724;13.346;2023-07-16T11:59:40;2.80;;;2.03;;
51122;SDS011;37162;41.724;13.346;2023-07-16T12:02:06;5.82;;;2.35;;
51122;SDS011;37162;41.724;13.346;2023-07-16T12:04:32;2.22;;;1.95;;
51122;SDS011;37162;41.724;13.346;2023-07-16T12:06:57;3.65;;;1.83;;
51122;SDS011;37162;41.724;13.346;2023-07-16T12:09:23;4.68;;;2.30;;
51122;SDS011;37162;41.724;13.346;2023-07-16T12:11:48;4.45;;;2.30;;
51122;SDS011;37162;41.724;13.346;2023-07-16T12:14:14;5.55;;;2.15;;
51122;SDS011;37162;41.724;13.346;2023-07-16T12:16:39;2.20;;;1.88;;
51122;SDS011;37162;41.724;13.346;2023-07-16T12:19:05;2.95;;;1.85;;
51122;SDS011;37162;41.724;13.346;2023-07-16T12:21:32;2.05;;;1.85;;
51122;SDS011;37162;41.724;13.346;2023-07-16T12:23:57;2.97;;;2.00;;
51122;SDS011;37162;41.724;13.346;2023-07-16T12:26:23;4.18;;;2.08;;
51122;SDS011;37162;41.724;13.346;2023-07-16T12:28:48;2.65;;;1.90;;
51122;SDS011;37162;41.724;13.346;2023-07-16T12:31:14;2.13;;;1.83;;
51122;SDS011;37162;41.724;13.346;2023-07-16T12:33:41;2.00;;;1.80;;
51122;SDS011;37162;41.724;13.346;2023-07-16T12:36:07;4.93;;;2.13;;
51122;SDS011;37162;41.724;13.346;2023-07-16T12:38:32;3.95;;;2.00;;
51122;SDS011;37162;41.724;13.346;2023-07-16T12:40:57;2.55;;;1.90;;
51122;SDS011;37162;41.724;13.346;2023-07-16T12:43:23;2.53;;;1.90;;
51122;SDS011;37162;41.724;13.346;2023-07-16T12:45:49;2.78;;;1.98;;
51122;SDS011;37162;41.724;13.346;2023-07-16T12:48:17;2.50;;;1.88;;
51122;SDS011;37162;41.724;13.346;2023-07-16T12:50:42;3.08;;;1.83;;
51122;SDS011;37162;41.724;13.346;2023-07-16T12:53:08;2.72;;;2.00;;
51122;SDS011;37162;41.724;13.346;2023-07-16T12:55:33;2.03;;;1.77;;
51122;SDS011;37162;41.724;13.346;2023-07-16T12:57:59;2.50;;;1.85;;
51122;SDS011;37162;41.724;13.346;2023-07-16T13:00:24;2.17;;;1.88;;
51122;SDS011;37162;41.724;13.346;2023-07-16T13:02:50;3.10;;;2.05;;
51122;SDS011;37162;41.724;13.346;2023-07-16T13:05:15;3.40;;;2.10;;
51122;SDS011;37162;41.724;13.346;2023-07-16T13:07:41;2.08;;;1.88;;
51122;SDS011;37162;41.724;13.346;2023-07-16T13:10:07;3.42;;;1.80;;
51122;SDS011;37162;41.724;13.346;2023-07-16T13:12:33;2.28;;;2.00;;
51122;SDS011;37162;41.724;13.346;2023-07-16T13:14:59;2.10;;;1.90;;
51122;SDS011;37162;41.724;13.346;2023-07-16T13:17:24;5.20;;;2.60;;
51122;SDS011;37162;41.724;13.346;2023-07-16T13:19:49;5.20;;;1.70;;
51122;SDS011;37162;41.724;13.346;2023-07-16T13:22:15;2.33;;;1.95;;
51122;SDS011;37162;41.724;13.346;2023-07-16T13:24:40;3.38;;;2.10;;
51122;SDS011;37162;41.724;13.346;2023-07-16T13:27:06;4.30;;;1.90;;
51122;SDS011;37162;41.724;13.346;2023-07-16T13:29:31;2.42;;;1.70;;
51122;SDS011;37162;41.724;13.346;2023-07-16T13:31:57;4.90;;;1.73;;
51122;SDS011;37162;41.724;13.346;2023-07-16T13:34:22;6.60;;;1.83;;
51122;SDS011;37162;41.724;13.346;2023-07-16T13:36:48;2.33;;;1.70;;
51122;SDS011;37162;41.724;13.346;2023-07-16T13:39:13;2.45;;;1.70;;
51122;SDS011;37162;41.724;13.346;2023-07-16T13:41:39;3.22;;;2.17;;
51122;SDS011;37162;41.724;13.346;2023-07-16T13:44:04;5.85;;;1.83;;
51122;SDS011;37162;41.724;13.346;2023-07-16T13:46:30;1.80;;;1.70;;
51122;SDS011;37162;41.724;13.346;2023-07-16T13:48:55;2.00;;;1.70;;
51122;SDS011;37162;41.724;13.346;2023-07-16T13:51:22;2.92;;;1.98;;
51122;SDS011;37162;41.724;13.346;2023-07-16T13:53:47;2.70;;;2.15;;
51122;SDS011;37162;41.724;13.346;2023-07-16T13:56:13;2.13;;;1.92;;
51122;SDS011;37162;41.724;13.346;2023-07-16T13:58:38;2.47;;;1.88;;
51122;SDS011;37162;41.724;13.346;2023-07-16T14:01:04;2.58;;;1.98;;
51122;SDS011;37162;41.724;13.346;2023-07-16T14:03:29;3.80;;;1.70;;
51122;SDS011;37162;41.724;13.346;2023-07-16T14:05:54;3.33;;;1.85;;
51122;SDS011;37162;41.724;13.346;2023-07-16T14:08:20;1.98;;;1.70;;
51122;SDS011;37162;41.724;13.346;2023-07-16T14:10:45;3.38;;;1.50;;
51122;SDS011;37162;41.724;13.346;2023-07-16T14:13:11;2.40;;;1.60;;
51122;SDS011;37162;41.724;13.346;2023-07-16T14:15:37;2.00;;;1.77;;
51122;SDS011;37162;41.724;13.346;2023-07-16T14:18:03;2.25;;;2.00;;
51122;SDS011;37162;41.724;13.346;2023-07-16T14:20:28;3.20;;;1.60;;
51122;SDS011;37162;41.724;13.346;2023-07-16T14:22:54;3.17;;;1.67;;
51122;SDS011;37162;41.724;13.346;2023-07-16T14:25:19;2.92;;;1.50;;
51122;SDS011;37162;41.724;13.346;2023-07-16T14:27:51;3.20;;;1.70;;
51122;SDS011;37162;41.724;13.346;2023-07-16T14:30:16;4.20;;;1.67;;
51122;SDS011;37162;41.724;13.346;2023-07-16T14:32:42;2.60;;;1.70;;
51122;SDS011;37162;41.724;13.346;2023-07-16T14:35:08;2.05;;;1.88;;
51122;SDS011;37162;41.724;13.346;2023-07-16T14:37:34;5.38;;;1.67;;